Hlavní strana
METAR-TAF:

METAR-TAF

Letiště :

Taylorville Municipal Airport

Taylorville, Illinois, Spojené státy americké

zeměpisná šířka: 39-32-03N, zeměpisná délka: 089-19-40W, výška: 190 m

Aktuální stav počasí

Zpráva byla vytvořena před 21 minutami, v 00:55 UTC
Západoseverozápadní vítr 4 kt
Teplota 21°C
Vlhkost vzduchu 88%
Tlak 1017 hPa
Viditelnost: 16.1 km
Jasno

METAR: KTAZ 220055Z AUTO 29004KT 10SM CLR 21/19 A3002 RMK AO2 T02100190

Čas: 20:16 (01:16 UTC)


TAF: chybějící

Stav a předpovědi počasí z více než 4 000 letišť (zprávy METAR a TAF).

Červené a žluté tečky na mapě představují dostupné meteorologické stanice.

Když kurzor umístíte na tečku, zobrazí se název stanice.

Pak kliknutím zobrazíte stav a předpověď počasí.

Chcete-li změnit mapu, kliknutím na zelené tlačítko se znaménkem +mapu přiblížíte, kliknutím na zelené tlačítko se znaménkem – mapu oddálíte a kliknutím na zelené šipky přejdete na sousední mapy.


METAR-TAF: